Terminal Aerodrome Forecast
Issued by NWS Austin/San Antonio, TX

Home | Current Version | Previous Version | Text Only | Print | Product List | Glossary On
Versions: 1 2 3 4 5 6 7 8 9 10 11 12 13
000
FTUS44 KEWX 252300
TAFAUS
TAF
KAUS 252340Z 2600/2706 00000KT P6SM FEW100
     FM260100 VRB02KT P6SM SKC
     FM261600 23010KT P6SM SKC=

USA.gov is the U.S. government's official web portal to all federal, state and local government web resources and services.